Ansonia, Connecticut
Current Conditions -  °F | °C
As of 3:55 AM on Monday 24 Nov 2014 (Local Time) from KOXC Reporting Station
Overcast Overcast  
Wind Chill: 12°   Ceiling: 400
Heat Index: 12°   Visibility: 8mi
Dew Point:   Wind: 15mph
Humidity: 82%   Direction: 140°SE
Pressure: 29.86"   Gusts: 22mph
Location:  41.34°N, 73.08°W
Report Text: KOXC 240855Z 14013G19KT 8SM OVC004 12/09 A2986 RMK AO1 P0017 60019 57047
Loading
Personal Weather Stations






























Interactive Weather Map New forecast layout! Learn more

10-Day Weather Forecast

Advertisements
Track Severe Weather on mobile